createdAt,value
2018-08-13T00:01:25.191Z,18.28
2018-08-13T00:03:57.995Z,18.19
2018-08-13T00:06:27.797Z,18.09
2018-08-13T00:08:57.597Z,18.14
2018-08-13T00:11:27.579Z,18.08
2018-08-13T00:13:57.242Z,18.00
2018-08-13T00:16:26.999Z,17.98
2018-08-13T00:18:56.757Z,17.90
2018-08-13T00:21:26.819Z,17.88
2018-08-13T00:23:56.663Z,17.91
2018-08-13T00:26:26.450Z,17.88
2018-08-13T00:28:56.264Z,17.80
2018-08-13T00:31:25.837Z,18.03
2018-08-13T00:33:55.388Z,17.96
2018-08-13T00:36:25.161Z,17.86
2018-08-13T00:38:54.828Z,17.94
2018-08-13T00:41:24.747Z,17.79
2018-08-13T00:43:54.516Z,17.77
2018-08-13T00:46:24.313Z,17.74
2018-08-13T00:48:54.051Z,17.68
2018-08-13T00:51:23.912Z,17.63
2018-08-13T00:53:53.540Z,17.67
2018-08-13T00:56:23.407Z,17.60
2018-08-13T00:58:53.282Z,17.53
2018-08-13T01:01:23.134Z,17.49
2018-08-13T01:03:52.957Z,17.45
2018-08-13T01:06:22.923Z,17.49
2018-08-13T01:08:52.883Z,17.49
2018-08-13T01:11:25.819Z,17.43
2018-08-13T01:13:55.692Z,17.49
2018-08-13T01:16:25.383Z,17.48
2018-08-13T01:18:55.249Z,17.59
2018-08-13T01:21:24.917Z,17.65
2018-08-13T01:23:54.577Z,17.51
2018-08-13T01:26:24.177Z,17.49
2018-08-13T01:28:54.028Z,17.42
2018-08-13T01:31:23.879Z,17.37
2018-08-13T01:33:53.749Z,17.28
2018-08-13T01:36:23.466Z,17.28
2018-08-13T01:38:53.392Z,17.21
2018-08-13T01:41:23.295Z,17.33
2018-08-13T01:43:53.183Z,17.27
2018-08-13T01:46:22.981Z,17.31
2018-08-13T01:48:52.552Z,17.51
2018-08-13T01:51:22.230Z,17.50
2018-08-13T01:53:51.808Z,17.44
2018-08-13T01:56:21.346Z,17.37
2018-08-13T01:58:50.899Z,17.34
2018-08-13T02:01:20.575Z,17.30
2018-08-13T02:03:50.353Z,17.33
2018-08-13T02:06:20.416Z,17.30
2018-08-13T02:08:50.158Z,17.25
2018-08-13T02:11:19.863Z,17.30
2018-08-13T02:13:49.538Z,17.33
2018-08-13T02:16:19.252Z,17.26
2018-08-13T02:18:49.008Z,17.16
2018-08-13T02:21:18.759Z,17.10
2018-08-13T02:23:48.958Z,17.05
2018-08-13T02:26:19.191Z,17.01
2018-08-13T02:28:49.016Z,17.00
2018-08-13T02:31:19.221Z,16.96
2018-08-13T02:33:49.024Z,17.01
2018-08-13T02:36:19.024Z,16.97
2018-08-13T02:38:48.589Z,16.97
2018-08-13T02:41:18.387Z,16.98
2018-08-13T02:43:48.229Z,17.04
2018-08-13T02:46:18.382Z,17.03
2018-08-13T02:48:48.158Z,17.03
2018-08-13T02:51:18.374Z,16.98
2018-08-13T02:53:48.023Z,16.98
2018-08-13T02:56:18.284Z,16.94
2018-08-13T02:58:47.956Z,16.94
2018-08-13T03:01:18.125Z,16.93
2018-08-13T03:03:47.831Z,16.94
2018-08-13T03:06:17.643Z,16.96
2018-08-13T03:08:47.417Z,16.98
2018-08-13T03:11:17.028Z,16.99
2018-08-13T03:13:46.670Z,16.99
2018-08-13T03:16:16.865Z,17.01
2018-08-13T03:18:46.624Z,17.06
2018-08-13T03:21:16.215Z,17.07
2018-08-13T03:23:46.007Z,17.07
2018-08-13T03:26:15.639Z,17.04
2018-08-13T03:28:45.336Z,17.02
2018-08-13T03:31:15.136Z,16.99
2018-08-13T03:33:44.837Z,16.95
2018-08-13T03:36:14.614Z,16.87
2018-08-13T03:38:44.367Z,16.83
2018-08-13T03:41:14.182Z,16.80
2018-08-13T03:43:43.915Z,16.80
2018-08-13T03:46:13.896Z,16.78
2018-08-13T03:48:43.822Z,16.75
2018-08-13T03:51:17.834Z,16.75
2018-08-13T03:53:47.421Z,16.71
2018-08-13T03:56:17.139Z,16.69
2018-08-13T03:58:46.911Z,16.69
2018-08-13T04:01:16.511Z,16.66
2018-08-13T04:03:46.181Z,16.58
2018-08-13T04:06:15.789Z,16.49
2018-08-13T04:08:45.496Z,16.47
2018-08-13T04:11:15.331Z,16.45
2018-08-13T04:13:45.223Z,16.45
2018-08-13T04:16:14.955Z,16.45
2018-08-13T04:18:45.382Z,16.48
2018-08-13T04:21:15.231Z,16.52
2018-08-13T04:23:44.964Z,16.51
2018-08-13T04:26:14.922Z,16.49
2018-08-13T04:28:44.659Z,16.50
2018-08-13T04:31:14.448Z,16.51
2018-08-13T04:33:44.085Z,16.55
2018-08-13T04:36:14.331Z,16.64
2018-08-13T04:38:44.803Z,16.66
2018-08-13T04:41:14.622Z,16.71
2018-08-13T04:43:44.649Z,16.82
2018-08-13T04:46:14.309Z,16.86
2018-08-13T04:48:44.950Z,17.03
2018-08-13T04:51:14.757Z,17.31
2018-08-13T04:53:44.505Z,17.91
2018-08-13T04:56:14.185Z,17.80
2018-08-13T04:58:43.889Z,19.95
2018-08-13T05:01:13.560Z,20.02
2018-08-13T05:03:43.750Z,21.68
2018-08-13T05:06:13.436Z,22.61
2018-08-13T05:08:43.481Z,22.10
2018-08-13T05:11:13.477Z,22.03
2018-08-13T05:13:43.168Z,20.65
2018-08-13T05:16:12.879Z,20.55
2018-08-13T05:18:42.498Z,21.01
2018-08-13T05:21:12.151Z,20.49
2018-08-13T05:23:41.921Z,20.61
2018-08-13T05:26:11.844Z,21.04
2018-08-13T05:28:41.577Z,22.02
2018-08-13T05:31:11.303Z,25.00
2018-08-13T05:33:41.166Z,22.36
2018-08-13T05:36:11.017Z,21.79
2018-08-13T05:38:40.561Z,20.83
2018-08-13T05:41:10.509Z,21.10
2018-08-13T05:43:40.283Z,20.04
2018-08-13T05:46:10.269Z,19.76
2018-08-13T05:48:40.186Z,19.94
2018-08-13T05:51:10.451Z,19.48
2018-08-13T05:53:40.549Z,19.68
2018-08-13T05:56:10.420Z,19.60
2018-08-13T05:58:40.299Z,20.24
2018-08-13T06:01:09.956Z,23.13
2018-08-13T06:03:46.361Z,24.02
2018-08-13T06:06:16.055Z,21.77
2018-08-13T06:08:45.751Z,23.65
2018-08-13T06:11:15.359Z,23.74
2018-08-13T06:13:45.118Z,20.93
2018-08-13T06:16:14.935Z,20.28
2018-08-13T06:18:44.689Z,20.18
2018-08-13T06:21:14.536Z,19.68
2018-08-13T06:23:44.407Z,19.71
2018-08-13T06:26:14.318Z,20.04
2018-08-13T06:28:44.056Z,20.29
2018-08-13T06:31:13.678Z,20.25
2018-08-13T06:33:43.435Z,20.35
2018-08-13T06:36:13.373Z,20.50
2018-08-13T06:38:42.981Z,21.27
2018-08-13T06:41:12.826Z,21.03
2018-08-13T06:43:42.581Z,21.33
2018-08-13T06:46:12.174Z,21.02
2018-08-13T06:48:41.960Z,21.26
2018-08-13T06:51:11.756Z,21.44
2018-08-13T06:53:41.552Z,21.72
2018-08-13T06:56:11.837Z,21.85
2018-08-13T06:58:41.628Z,22.06
2018-08-13T07:01:11.666Z,22.12
2018-08-13T07:03:41.419Z,22.16
2018-08-13T07:06:11.174Z,22.25
2018-08-13T07:08:41.205Z,22.26
2018-08-13T07:11:10.925Z,22.35
2018-08-13T07:13:40.742Z,22.34
2018-08-13T07:16:10.493Z,22.45
2018-08-13T07:18:40.497Z,22.25
2018-08-13T07:21:10.446Z,22.47
2018-08-13T07:23:40.370Z,22.26
2018-08-13T07:26:10.142Z,22.34
2018-08-13T07:28:39.965Z,22.45
2018-08-13T07:31:09.634Z,22.41
2018-08-13T07:33:39.876Z,22.19
2018-08-13T07:36:09.924Z,22.28
2018-08-13T07:38:39.723Z,21.94
2018-08-13T07:41:09.712Z,21.97
2018-08-13T07:43:40.213Z,21.63
2018-08-13T07:46:10.081Z,21.93
2018-08-13T07:48:39.884Z,22.00
2018-08-13T07:51:09.564Z,22.03
2018-08-13T07:53:39.568Z,21.96
2018-08-13T07:56:09.600Z,21.71
2018-08-13T07:58:39.547Z,21.49
2018-08-13T08:01:09.369Z,21.20
2018-08-13T08:03:39.084Z,20.93
2018-08-13T08:06:09.193Z,20.86
2018-08-13T08:08:39.177Z,20.72
2018-08-13T08:11:08.978Z,20.70
2018-08-13T08:13:38.954Z,20.71
2018-08-13T08:16:08.883Z,20.63
2018-08-13T08:18:38.723Z,20.66
2018-08-13T08:21:08.775Z,20.77
2018-08-13T08:23:38.629Z,20.95
2018-08-13T08:26:08.304Z,20.78
2018-08-13T08:28:38.305Z,20.84
2018-08-13T08:31:08.239Z,20.51
2018-08-13T08:33:37.899Z,20.46
2018-08-13T08:36:07.843Z,20.48
2018-08-13T08:38:37.948Z,20.79
2018-08-13T08:41:07.829Z,20.61
2018-08-13T08:43:37.608Z,20.67
2018-08-13T08:46:08.679Z,20.39
2018-08-13T08:48:38.471Z,20.49
2018-08-13T08:51:08.481Z,20.32
2018-08-13T08:53:38.625Z,20.46
2018-08-13T08:56:08.391Z,20.45
2018-08-13T08:58:38.479Z,20.37
2018-08-13T09:01:08.417Z,20.31
2018-08-13T09:03:38.044Z,20.23
2018-08-13T09:06:07.770Z,20.26
2018-08-13T09:08:37.705Z,20.27
2018-08-13T09:11:07.888Z,20.21
2018-08-13T09:13:37.855Z,20.31
2018-08-13T09:16:07.728Z,20.11
2018-08-13T09:18:54.501Z,19.99
2018-08-13T09:21:32.289Z,19.94
2018-08-13T09:24:18.768Z,19.93
2018-08-13T09:27:05.251Z,19.79
2018-08-13T09:29:51.786Z,19.92
2018-08-13T09:32:38.385Z,20.12
2018-08-13T09:35:38.589Z,20.16
2018-08-13T09:38:08.528Z,20.08
2018-08-13T09:40:38.534Z,20.10
2018-08-13T09:43:08.252Z,20.21
2018-08-13T09:45:37.942Z,20.07
2018-08-13T09:48:07.883Z,20.32
2018-08-13T09:50:37.613Z,20.46
2018-08-13T09:53:07.663Z,20.46
2018-08-13T09:55:37.474Z,20.59
2018-08-13T09:58:08.312Z,20.85
2018-08-13T10:00:43.174Z,21.16
2018-08-13T10:03:13.010Z,21.65
2018-08-13T10:05:42.935Z,21.70
2018-08-13T10:08:12.761Z,21.78
2018-08-13T10:10:42.495Z,21.50
2018-08-13T10:13:12.522Z,21.92
2018-08-13T10:15:42.689Z,21.67
2018-08-13T10:18:12.473Z,21.96
2018-08-13T10:20:42.412Z,21.66
2018-08-13T10:23:12.404Z,21.72
2018-08-13T10:25:42.499Z,21.65
2018-08-13T10:28:12.361Z,21.33
2018-08-13T10:30:42.214Z,21.55
2018-08-13T10:33:12.071Z,21.33
2018-08-13T10:35:42.000Z,21.56
2018-08-13T10:38:11.694Z,21.72
2018-08-13T10:40:41.406Z,21.55
2018-08-13T10:43:11.059Z,21.36
2018-08-13T10:45:40.810Z,21.38
2018-08-13T10:48:10.582Z,21.58
2018-08-13T10:50:40.298Z,21.91
2018-08-13T10:53:10.134Z,22.05
2018-08-13T10:55:39.943Z,22.32
2018-08-13T10:58:09.923Z,22.06
2018-08-13T11:00:39.754Z,22.18
2018-08-13T11:03:09.640Z,22.24
2018-08-13T11:05:39.319Z,22.48
2018-08-13T11:08:09.025Z,22.23
2018-08-13T11:10:38.670Z,22.05
2018-08-13T11:13:08.532Z,22.18
2018-08-13T11:15:38.213Z,22.37
2018-08-13T11:18:13.051Z,22.52
2018-08-13T11:20:43.081Z,22.45
2018-08-13T11:23:13.094Z,22.68
2018-08-13T11:25:42.792Z,23.07
2018-08-13T11:28:12.751Z,22.99
2018-08-13T11:30:43.774Z,23.13
2018-08-13T11:33:13.333Z,23.28
2018-08-13T11:35:43.384Z,24.24
2018-08-13T11:38:13.246Z,24.31
2018-08-13T11:40:43.337Z,24.18
2018-08-13T11:43:13.039Z,24.16
2018-08-13T11:45:42.856Z,24.28
2018-08-13T11:48:15.120Z,24.27
2018-08-13T11:50:45.189Z,24.65
2018-08-13T11:53:14.921Z,24.87
2018-08-13T11:55:44.824Z,24.85
2018-08-13T11:58:14.747Z,24.89
2018-08-13T12:00:44.910Z,24.89
2018-08-13T12:03:14.738Z,24.99
2018-08-13T12:05:44.655Z,24.92
2018-08-13T12:08:14.385Z,24.75
2018-08-13T12:10:44.108Z,24.82
2018-08-13T12:13:13.886Z,24.88
2018-08-13T12:15:43.985Z,24.81
2018-08-13T12:18:13.825Z,24.95
2018-08-13T12:20:43.662Z,25.35
2018-08-13T12:23:13.476Z,25.85
2018-08-13T12:25:43.529Z,25.55
2018-08-13T12:28:13.155Z,25.83
2018-08-13T12:30:42.906Z,25.82
2018-08-13T12:33:12.674Z,25.87
2018-08-13T12:35:42.530Z,25.96
2018-08-13T12:38:12.558Z,25.01
2018-08-13T12:40:42.441Z,25.28
2018-08-13T12:43:12.404Z,25.27
2018-08-13T12:45:42.322Z,25.37
2018-08-13T12:48:12.604Z,24.69
2018-08-13T12:50:42.447Z,24.52
2018-08-13T12:53:12.528Z,24.93
2018-08-13T12:55:42.492Z,24.38
2018-08-13T12:58:12.899Z,24.62
2018-08-13T13:00:43.096Z,24.73
2018-08-13T13:03:12.704Z,24.73
2018-08-13T13:05:42.729Z,25.03
2018-08-13T13:08:12.477Z,24.20
2018-08-13T13:10:42.607Z,24.55
2018-08-13T13:13:12.692Z,23.84
2018-08-13T13:15:42.842Z,24.10
2018-08-13T13:18:12.536Z,23.47
2018-08-13T13:20:42.416Z,23.31
2018-08-13T13:23:12.571Z,23.35
2018-08-13T13:25:42.557Z,23.31
2018-08-13T13:28:12.571Z,23.16
2018-08-13T13:30:42.516Z,23.06
2018-08-13T13:33:12.619Z,23.47
2018-08-13T13:35:42.335Z,23.65
2018-08-13T13:38:12.373Z,23.21
2018-08-13T13:40:42.210Z,23.41
2018-08-13T13:43:12.201Z,23.20
2018-08-13T13:45:42.394Z,22.95
2018-08-13T13:48:12.552Z,23.28
2018-08-13T13:50:42.223Z,23.49
2018-08-13T13:53:12.217Z,24.22
2018-08-13T13:55:42.100Z,23.71
2018-08-13T13:58:12.072Z,23.59
2018-08-13T14:00:41.927Z,23.91
2018-08-13T14:03:14.746Z,23.77
2018-08-13T14:05:44.621Z,23.90
2018-08-13T14:08:14.670Z,23.61
2018-08-13T14:10:44.532Z,23.65
2018-08-13T14:13:14.722Z,23.41
2018-08-13T14:15:45.346Z,23.37
2018-08-13T14:18:15.497Z,23.17
2018-08-13T14:20:45.328Z,23.13
2018-08-13T14:23:15.725Z,22.86
2018-08-13T14:25:45.762Z,22.52
2018-08-13T14:28:15.965Z,22.30
2018-08-13T14:30:45.768Z,22.28
2018-08-13T14:33:16.025Z,22.52
2018-08-13T14:35:45.867Z,22.62
2018-08-13T14:38:16.428Z,22.50
2018-08-13T14:40:46.226Z,22.30
2018-08-13T14:43:16.578Z,22.22
2018-08-13T14:45:46.446Z,22.09
2018-08-13T14:48:16.647Z,22.34
2018-08-13T14:50:46.665Z,22.21
2018-08-13T14:53:17.033Z,22.07
2018-08-13T14:55:46.938Z,21.74
2018-08-13T14:58:17.181Z,21.46
2018-08-13T15:00:46.966Z,21.42
2018-08-13T15:03:17.162Z,21.67
2018-08-13T15:05:47.111Z,21.53
2018-08-13T15:08:17.372Z,21.40
2018-08-13T15:10:47.239Z,21.44
2018-08-13T15:13:17.026Z,21.59
2018-08-13T15:15:46.746Z,21.63
2018-08-13T15:18:17.097Z,21.47
2018-08-13T15:20:47.019Z,21.44
2018-08-13T15:23:16.715Z,21.42
2018-08-13T15:25:47.129Z,21.93
2018-08-13T15:28:17.040Z,21.70
2018-08-13T15:30:46.737Z,22.09
2018-08-13T15:33:19.647Z,22.00
2018-08-13T15:35:49.347Z,22.33
2018-08-13T15:38:19.484Z,22.09
2018-08-13T15:40:49.590Z,22.20
2018-08-13T15:43:19.811Z,22.19
2018-08-13T15:45:49.635Z,21.98
2018-08-13T15:48:19.822Z,22.02
2018-08-13T15:50:49.616Z,22.01
2018-08-13T15:53:19.380Z,22.11
2018-08-13T15:55:49.202Z,22.12
2018-08-13T15:58:19.211Z,21.97
2018-08-13T16:00:48.934Z,22.40
2018-08-13T16:03:18.880Z,22.38
2018-08-13T16:05:48.754Z,22.20
2018-08-13T16:08:18.502Z,22.34
2018-08-13T16:10:48.682Z,22.52
2018-08-13T16:13:18.457Z,22.56
2018-08-13T16:15:48.380Z,22.51
2018-08-13T16:18:18.083Z,22.48
2018-08-13T16:20:48.470Z,22.27
2018-08-13T16:23:18.189Z,22.44
2018-08-13T16:25:48.337Z,22.39
2018-08-13T16:28:18.099Z,21.98
2018-08-13T16:30:48.875Z,21.79
2018-08-13T16:33:18.771Z,21.61
2018-08-13T16:35:48.813Z,21.66
2018-08-13T16:38:18.573Z,21.67
2018-08-13T16:40:48.342Z,21.62
2018-08-13T16:43:18.090Z,21.56
2018-08-13T16:45:47.961Z,21.46
2018-08-13T16:48:17.688Z,21.49
2018-08-13T16:50:47.524Z,21.51
2018-08-13T16:53:17.351Z,21.45
2018-08-13T16:55:47.376Z,21.51
2018-08-13T16:58:17.136Z,21.51
2018-08-13T17:00:47.160Z,21.35
2018-08-13T17:03:17.037Z,21.49
2018-08-13T17:05:46.772Z,21.56
2018-08-13T17:08:16.678Z,21.53
2018-08-13T17:10:46.439Z,21.44
2018-08-13T17:13:16.148Z,21.31
2018-08-13T17:15:46.032Z,21.58
2018-08-13T17:18:15.938Z,21.45
2018-08-13T17:20:45.584Z,21.45
2018-08-13T17:23:15.721Z,21.42
2018-08-13T17:25:45.433Z,21.45
2018-08-13T17:28:15.094Z,21.45
2018-08-13T17:30:44.771Z,21.40
2018-08-13T17:33:14.688Z,21.15
2018-08-13T17:35:44.529Z,21.06
2018-08-13T17:38:14.328Z,21.17
2018-08-13T17:40:44.029Z,21.24
2018-08-13T17:43:13.955Z,21.21
2018-08-13T17:45:43.729Z,21.07
2018-08-13T17:48:13.490Z,21.22
2018-08-13T17:50:43.228Z,21.16
2018-08-13T17:53:13.053Z,20.97
2018-08-13T17:55:42.985Z,20.90
2018-08-13T17:58:12.888Z,20.67
2018-08-13T18:00:42.581Z,20.52
2018-08-13T18:03:16.327Z,20.44
2018-08-13T18:05:46.279Z,20.43
2018-08-13T18:08:15.958Z,20.42
2018-08-13T18:10:45.920Z,20.43
2018-08-13T18:13:15.868Z,20.56
2018-08-13T18:15:45.776Z,20.38
2018-08-13T18:18:15.580Z,20.24
2018-08-13T18:20:45.655Z,20.17
2018-08-13T18:23:15.510Z,20.20
2018-08-13T18:25:45.256Z,20.22
2018-08-13T18:28:15.780Z,20.16
2018-08-13T18:30:46.000Z,20.25
2018-08-13T18:33:15.842Z,20.25
2018-08-13T18:35:45.625Z,20.35
2018-08-13T18:38:15.461Z,20.00
2018-08-13T18:40:45.322Z,19.91
2018-08-13T18:43:15.040Z,20.05
2018-08-13T18:45:44.991Z,20.06
2018-08-13T18:48:14.900Z,20.10
2018-08-13T18:50:44.839Z,19.93
2018-08-13T18:53:14.646Z,20.26
2018-08-13T18:55:44.493Z,20.00
2018-08-13T18:58:14.489Z,19.94
2018-08-13T19:00:48.476Z,20.05
2018-08-13T19:03:18.195Z,19.93
2018-08-13T19:05:48.157Z,19.90
2018-08-13T19:08:18.002Z,19.84
2018-08-13T19:10:47.776Z,19.82
2018-08-13T19:13:17.635Z,19.78
2018-08-13T19:15:47.366Z,19.81
2018-08-13T19:18:17.304Z,19.69
2018-08-13T19:20:47.044Z,19.70
2018-08-13T19:23:17.017Z,19.70
2018-08-13T19:25:46.705Z,19.60
2018-08-13T19:28:16.716Z,19.64
2018-08-13T19:30:46.602Z,19.39
2018-08-13T19:33:16.677Z,19.38
2018-08-13T19:35:46.457Z,19.29
2018-08-13T19:38:16.362Z,19.19
2018-08-13T19:40:46.223Z,19.14
2018-08-13T19:43:16.209Z,19.12
2018-08-13T19:45:46.167Z,19.00
2018-08-13T19:48:16.286Z,18.92
2018-08-13T19:50:46.787Z,18.94
2018-08-13T19:53:16.796Z,18.89
2018-08-13T19:55:47.649Z,18.78
2018-08-13T19:58:17.756Z,18.81
2018-08-13T20:00:47.898Z,18.96
2018-08-13T20:03:18.057Z,18.77
2018-08-13T20:05:48.279Z,18.75
2018-08-13T20:08:18.393Z,18.69
2018-08-13T20:10:48.186Z,18.68
2018-08-13T20:13:18.069Z,18.80
2018-08-13T20:15:47.809Z,18.55
2018-08-13T20:18:17.583Z,18.62
2018-08-13T20:20:47.343Z,18.49
2018-08-13T20:23:17.172Z,18.58
2018-08-13T20:25:51.118Z,18.62
2018-08-13T20:28:20.966Z,18.43
2018-08-13T20:30:50.701Z,18.39
2018-08-13T20:33:20.492Z,18.48
2018-08-13T20:35:50.432Z,18.45
2018-08-13T20:38:20.161Z,18.32
2018-08-13T20:40:49.877Z,18.23
2018-08-13T20:43:19.749Z,18.22
2018-08-13T20:45:49.498Z,18.28
2018-08-13T20:48:19.445Z,18.32
2018-08-13T20:50:49.642Z,18.14
2018-08-13T20:53:19.904Z,18.17
2018-08-13T20:55:49.889Z,18.15
2018-08-13T20:58:19.750Z,18.06
2018-08-13T21:00:49.530Z,18.11
2018-08-13T21:03:19.354Z,18.08
2018-08-13T21:05:49.256Z,17.98
2018-08-13T21:08:19.237Z,18.07
2018-08-13T21:10:48.988Z,18.04
2018-08-13T21:13:19.162Z,17.92
2018-08-13T21:15:49.251Z,17.93
2018-08-13T21:18:19.078Z,18.00
2018-08-13T21:20:48.951Z,17.97
2018-08-13T21:23:19.148Z,17.97
2018-08-13T21:25:48.957Z,17.80
2018-08-13T21:28:18.647Z,17.79
2018-08-13T21:30:48.419Z,17.77
2018-08-13T21:33:22.816Z,17.83
2018-08-13T21:35:52.473Z,17.77
2018-08-13T21:38:22.324Z,17.78
2018-08-13T21:40:52.096Z,17.70
2018-08-13T21:43:21.966Z,17.61
2018-08-13T21:45:51.712Z,17.63
2018-08-13T21:48:26.920Z,17.55
2018-08-13T21:50:56.607Z,17.56
2018-08-13T21:53:26.592Z,17.49
2018-08-13T21:55:57.154Z,17.51
2018-08-13T21:58:26.916Z,17.53
2018-08-13T22:01:01.754Z,17.56
2018-08-13T22:03:31.471Z,17.55
2018-08-13T22:06:01.272Z,17.49
2018-08-13T22:08:31.044Z,17.54
2018-08-13T22:11:00.908Z,17.50
2018-08-13T22:13:30.860Z,17.60
2018-08-13T22:16:00.695Z,17.52
2018-08-13T22:18:30.676Z,17.57
2018-08-13T22:21:00.528Z,17.58
2018-08-13T22:23:30.409Z,17.63
2018-08-13T22:26:00.140Z,17.52
2018-08-13T22:28:29.792Z,17.63
2018-08-13T22:30:59.572Z,17.51
2018-08-13T22:33:29.552Z,17.44
2018-08-13T22:35:59.474Z,17.50
2018-08-13T22:38:29.251Z,17.62
2018-08-13T22:40:58.845Z,17.61
2018-08-13T22:43:28.604Z,17.64
2018-08-13T22:45:58.314Z,17.57
2018-08-13T22:48:27.991Z,17.56
2018-08-13T22:50:57.656Z,17.60
2018-08-13T22:53:27.389Z,17.53
2018-08-13T22:55:57.154Z,17.49
2018-08-13T22:58:26.799Z,17.52
2018-08-13T23:00:56.965Z,17.44
2018-08-13T23:03:26.456Z,17.56
2018-08-13T23:05:56.446Z,17.51
2018-08-13T23:08:26.397Z,17.48
2018-08-13T23:10:56.264Z,17.44
2018-08-13T23:13:27.439Z,17.42
2018-08-13T23:15:57.387Z,17.54
2018-08-13T23:18:27.183Z,17.54
2018-08-13T23:20:58.087Z,17.49
2018-08-13T23:23:28.091Z,17.54
2018-08-13T23:25:58.221Z,17.59
2018-08-13T23:28:28.052Z,17.41
2018-08-13T23:30:57.977Z,17.45
2018-08-13T23:33:27.766Z,17.52
2018-08-13T23:35:57.741Z,17.43
2018-08-13T23:38:27.496Z,17.52
2018-08-13T23:40:57.344Z,17.43
2018-08-13T23:43:26.969Z,17.65
2018-08-13T23:45:56.855Z,17.53
2018-08-13T23:48:26.671Z,17.53
2018-08-13T23:50:56.709Z,17.54
2018-08-13T23:53:33.060Z,17.54
2018-08-13T23:56:02.824Z,17.56
2018-08-13T23:58:32.480Z,17.52
